x

West Sea Otter (46204) Wave Buoy

8:00 - Fri 27th Mar 2015 All times are PDT. -7 hours from GMT.

  • Sig Wave height 8.2ft
  • Peak Period 10s
  • Wind
    13mph, 16mph gusts
  • Sea Temp 49°f
  • Luft Temp 49°f
  • Sea Pressure 1010.8mb
  • West Sea Otter
  • West Sea Otter

More Historic Weather Station data

Upgrade to MSW Pro to gain access to the past 30 days of data for over 8000 Wavebouys and Weather Stations around the globe.

Join Pro

Comparision Forecast

View Surf forecast
   
Fr 03/27 8:00 8ft 10s 13 16 mph 1010.8mb 49f 49f
7:00 9ft 12s 18 20 mph 1009.6mb 49f 48f
6:00 9.5ft 11s 18 22 mph 1010.1mb 49f 48f
5:00 9ft 11s 18 20 mph 1010.5mb 49f 47f
4:00 8.5ft 12s 18 20 mph 1010.5mb 49f 47f
3:00 9ft 12s 18 22 mph 1010.4mb 49f 47f
2:00 9ft 13s 16 20 mph 1010.6mb 49f 47f
1:00 9.5ft 13s 18 20 mph 1010.7mb 49f 47f
12:00 9.5ft 14s 20 22 mph 1010mb 49f 47f
11:00 9ft 14s 13 18 mph 1011.1mb 49f 46f
9:00 10ft 14s 13 16 mph 1011.7mb 50f 47f
8:00 10.5ft 12s 13 16 mph 1012.3mb 49f 47f
6:00 11.5ft 12s 16 20 mph 1012.9mb 49f 47f
5:00 11ft 12s 13 18 mph 1013.6mb 49f 47f
4:00 10.5ft 11s 13 16 mph 1014.3mb 49f 47f
3:00 11ft 11s 13 18 mph 1014.8mb 50f 47f
2:00 11ft 11s 13
mph
1014.6mb 50f 47f
1:00 9.5ft 11s 9 13 mph 1014.5mb 50f 48f
Do 03/26 11:00 11ft 12s 22 27 mph 1013.7mb 50f 51f
10:00 11ft 11s 22 29 mph 1013.6mb 50f 51f
8:00 10.5ft 12s 27 34 mph 1013.3mb 50f 51f
7:00 10ft 12s 25 29 mph 1013.7mb 49f 52f
6:00 9ft 12s 16 18 mph 1014.6mb 49f 51f
5:00 10ft 11s 4 7 mph 1016mb 49f 50f
4:00 11ft 12s 9 13 mph 1016.9mb 49f 48f
3:00 10ft 10s 11 16 mph 1017.1mb 50f 48f
1:00 10ft 10s 11 13 mph 1017.8mb 49f 50f
12:00 10ft 11s 13 16 mph 1018mb 49f 51f
11:00 9ft 10s 11 13 mph 1018mb 49f 51f
10:00 9.5ft 11s 13 18 mph 1017.5mb 49f 51f
9:00 9ft 11s 16 18 mph 1016.8mb 49f 51f
8:00 9ft 11s 16 18 mph 1016.5mb 49f 51f
7:00 8.5ft 11s 18 22 mph 1016mb 49f 51f
6:00 9ft 11s 16 20 mph 1015.3mb 49f 51f
5:00 9ft 11s 22 27 mph 1014.8mb 49f 51f
4:00 9ft 11s 22 25 mph 1014mb 49f 51f
3:00 8ft 11s 22 27 mph 1013.7mb 49f 51f
2:00 9ft 11s 25 29 mph 1013.6mb 49f 49f
1:00 9ft 11s 27 34 mph 1013.5mb 49f 49f
12:00 9.5ft 10s 27 31 mph 1014.5mb 49f 49f
Mi 03/25 11:00 10ft 10s 27 34 mph 1014.7mb 49f 49f
9:00 10.5ft 10s 27 31 mph 1014.4mb 49f 49f
8:00 10ft 6s 25 31 mph 1014.4mb 49f 49f
6:00 9.5ft 7s 29 36 mph 1013.4mb 49f 49f
5:00 9ft 6s 31 36 mph 1013.3mb 49f 49f
4:00 9ft 6s 29 34 mph 1013.4mb 49f 49f
3:00 8.5ft 6s 31 38 mph 1013mb 49f 48f
2:00 9ft 6s 29 36 mph 1013.4mb 49f 49f
1:00 10ft 6s 36 43 mph 1011.6mb 49f 48f
12:00 10.5ft 8s 31 38 mph 1012.5mb 49f 48f
10:00 12ft 7s 38 45 mph 1011.1mb 49f 47f
9:00 12ft 8s 38 47 mph 1010.4mb 49f 47f
8:00 13ft 8s 38 47 mph 1009.6mb 49f 46f
7:00 13.5ft 7s 36 47 mph 1009.4mb 49f 46f
6:00 14ft 8s 38 47 mph 1008.9mb 49f 46f
5:00 15ft 8s 38 47 mph 1008.6mb 49f 47f
4:00 15.5ft 8s 38 45 mph 1008.3mb 49f 47f
1:00 11ft 7s 40 49 mph 1008.8mb 49f 47f
12:00 10.5ft 6s 40 49 mph 1009.6mb 49f 47f
Di 03/24 11:00 9ft 6s 36 45 mph 1010.6mb 49f 47f
10:00 8ft 11s 34 45 mph 1012.1mb 49f 47f
9:00 7.5ft 7s 29 36 mph 1013mb 49f 48f
8:00 7ft 12s 29 38 mph 1014mb 49f 48f
7:00 7.5ft 11s 20 25 mph 1014.8mb 49f 50f
6:00 7.5ft 11s 22 29 mph 1014.8mb 49f 50f
5:00 8ft 12s 27 34 mph 1015.7mb 49f 49f
4:00 6ft 12s 25 31 mph 1016.6mb 49f 49f
3:00 6ft 11s 20 25 mph 1017.2mb 49f 49f
2:00 6ft 11s 13 16 mph 1017.5mb 49f 49f
1:00 7ft 12s 11 13 mph 1017.3mb 49f 48f
12:00 7ft 12s 11 13 mph 1017.4mb 49f 48f
11:00 6.5ft 11s 7 9 mph 1017.3mb 49f 48f
10:00 7ft 11s 2 7 mph 1017.3mb 49f 49f
9:00 7.5ft 12s  -  2 mph 1016.8mb 50f 49f
8:00 7ft 12s 2 4 mph 1016.2mb 50f 48f
7:00 7ft 12s 4 7 mph 1015.9mb 49f 48f
6:00 7ft 12s 7 9 mph 1015.5mb 49f 48f
5:00 7.5ft 12s 9 11 mph 1015.3mb 49f 48f